createdAt,value
2019-01-20T00:00:40.447Z,74.00
2019-01-20T00:03:09.086Z,53.02
2019-01-20T00:05:38.098Z,52.05
2019-01-20T00:08:07.089Z,79.40
2019-01-20T00:10:35.714Z,49.03
2019-01-20T00:13:04.580Z,43.10
2019-01-20T00:15:36.427Z,85.35
2019-01-20T00:18:05.400Z,78.28
2019-01-20T00:20:53.587Z,65.97
2019-01-20T00:23:22.286Z,37.78
2019-01-20T00:25:50.974Z,39.80
2019-01-20T00:28:19.992Z,58.58
2019-01-20T00:30:48.697Z,69.50
2019-01-20T00:33:17.680Z,72.10
2019-01-20T00:35:46.972Z,74.05
2019-01-20T00:38:15.665Z,49.35
2019-01-20T00:40:44.656Z,66.62
2019-01-20T00:43:13.338Z,55.85
2019-01-20T00:45:42.264Z,55.98
2019-01-20T00:48:11.226Z,68.70
2019-01-20T00:50:40.220Z,64.53
2019-01-20T00:53:09.416Z,72.45
2019-01-20T00:55:38.141Z,62.75
2019-01-20T00:58:07.217Z,56.70
2019-01-20T01:00:36.298Z,133.50
2019-01-20T01:03:05.394Z,54.03
2019-01-20T01:05:34.489Z,61.63
2019-01-20T01:08:03.585Z,88.22
2019-01-20T01:10:32.573Z,150.30
2019-01-20T01:13:03.204Z,86.02
2019-01-20T01:15:32.317Z,91.82
2019-01-20T01:18:01.197Z,124.33
2019-01-20T01:20:30.301Z,66.62
2019-01-20T01:22:59.295Z,142.85
2019-01-20T01:25:28.289Z,230.35
2019-01-20T01:27:56.981Z,151.07
2019-01-20T01:30:26.588Z,184.32
2019-01-20T01:32:55.599Z,80.35
2019-01-20T01:35:24.288Z,75.32
2019-01-20T01:37:53.356Z,79.42
2019-01-20T01:40:22.089Z,72.08
2019-01-20T01:42:51.041Z,139.12
2019-01-20T01:45:21.157Z,90.62
2019-01-20T01:47:50.457Z,112.70
2019-01-20T01:50:19.946Z,168.05
2019-01-20T01:52:48.857Z,93.47
2019-01-20T01:55:17.584Z,218.22
2019-01-20T01:57:46.306Z,118.70
2019-01-20T02:00:17.881Z,118.25
2019-01-20T02:02:46.613Z,192.80
2019-01-20T02:05:15.771Z,123.80
2019-01-20T02:07:44.494Z,197.53
2019-01-20T02:10:15.584Z,124.47
2019-01-20T02:12:44.424Z,91.42
2019-01-20T02:15:14.422Z,170.20
2019-01-20T02:17:43.400Z,227.87
2019-01-20T02:20:14.533Z,117.15
2019-01-20T02:22:43.949Z,306.80
2019-01-20T02:25:12.755Z,201.40
2019-01-20T02:27:41.430Z,70.28
2019-01-20T02:30:14.488Z,195.95
2019-01-20T02:32:43.513Z,151.30
2019-01-20T02:35:12.179Z,263.80
2019-01-20T02:37:41.280Z,153.55
2019-01-20T02:40:11.498Z,137.52
2019-01-20T02:42:40.160Z,112.65
2019-01-20T02:45:10.523Z,77.65
2019-01-20T02:47:39.415Z,157.40
2019-01-20T02:50:10.489Z,114.25
2019-01-20T02:52:39.863Z,78.55
2019-01-20T02:55:08.961Z,115.95
2019-01-20T02:57:37.954Z,147.53
2019-01-20T03:00:10.573Z,81.42
2019-01-20T03:02:39.523Z,103.85
2019-01-20T03:05:09.812Z,135.50
2019-01-20T03:07:39.046Z,125.58
2019-01-20T03:10:08.533Z,76.35
2019-01-20T03:12:37.859Z,195.25
2019-01-20T03:15:07.358Z,105.27
2019-01-20T03:17:36.431Z,114.57
2019-01-20T03:20:07.962Z,85.07
2019-01-20T03:22:36.896Z,120.08
2019-01-20T03:25:07.731Z,101.72
2019-01-20T03:27:36.398Z,81.30
2019-01-20T03:30:07.348Z,114.88
2019-01-20T03:32:36.452Z,137.72
2019-01-20T03:35:06.163Z,99.40
2019-01-20T03:37:35.156Z,50.23
2019-01-20T03:40:05.338Z,258.80
2019-01-20T03:42:33.992Z,152.17
2019-01-20T03:45:03.060Z,110.85
2019-01-20T03:47:32.058Z,166.90
2019-01-20T03:50:01.081Z,186.55
2019-01-20T03:52:30.038Z,127.87
2019-01-20T03:54:58.744Z,102.82
2019-01-20T03:57:27.644Z,96.30
2019-01-20T03:59:56.622Z,123.07
2019-01-20T04:02:25.779Z,106.83
2019-01-20T04:04:54.931Z,84.97
2019-01-20T04:07:23.599Z,59.65
2019-01-20T04:09:52.488Z,114.08
2019-01-20T04:12:21.237Z,77.82
2019-01-20T04:14:50.271Z,137.88
2019-01-20T04:17:18.928Z,143.07
2019-01-20T04:19:47.595Z,80.38
2019-01-20T04:22:16.317Z,75.78
2019-01-20T04:24:45.220Z,53.30
2019-01-20T04:27:14.214Z,44.83
2019-01-20T04:29:42.859Z,72.50
2019-01-20T04:32:11.501Z,42.70
2019-01-20T04:34:40.475Z,45.38
2019-01-20T04:37:09.776Z,40.05
2019-01-20T04:39:38.864Z,47.45
2019-01-20T04:42:07.532Z,33.60
2019-01-20T04:44:36.454Z,34.80
2019-01-20T04:47:05.189Z,50.88
2019-01-20T04:49:33.837Z,39.23
2019-01-20T04:52:02.821Z,54.35
2019-01-20T04:54:31.485Z,59.65
2019-01-20T04:57:00.133Z,124.78
2019-01-20T04:59:28.903Z,44.70
2019-01-20T05:01:57.882Z,54.65
2019-01-20T05:04:26.765Z,64.25
2019-01-20T05:06:55.412Z,68.67
2019-01-20T05:09:24.446Z,109.27
2019-01-20T05:11:53.153Z,129.60
2019-01-20T05:14:22.021Z,72.58
2019-01-20T05:16:51.017Z,51.45
2019-01-20T05:19:20.015Z,68.67
2019-01-20T05:21:49.000Z,70.22
2019-01-20T05:24:17.643Z,63.15
2019-01-20T05:26:46.304Z,92.12
2019-01-20T05:29:15.286Z,63.48
2019-01-20T05:31:44.264Z,74.40
2019-01-20T05:34:13.256Z,58.87
2019-01-20T05:36:42.263Z,75.57
2019-01-20T05:39:11.554Z,76.10
2019-01-20T05:41:40.850Z,73.55
2019-01-20T05:44:09.509Z,57.70
2019-01-20T05:46:38.426Z,70.72
2019-01-20T05:49:07.424Z,67.90
2019-01-20T05:51:36.422Z,67.25
2019-01-20T05:54:05.152Z,79.00
2019-01-20T05:56:33.804Z,64.25
2019-01-20T05:59:02.782Z,48.23
2019-01-20T06:01:31.787Z,55.90
2019-01-20T06:04:01.398Z,68.95
2019-01-20T06:06:30.389Z,82.15
2019-01-20T06:08:59.033Z,60.90
2019-01-20T06:11:27.670Z,88.85
2019-01-20T06:13:56.641Z,76.07
2019-01-20T06:16:25.289Z,64.95
2019-01-20T06:18:55.070Z,73.02
2019-01-20T06:21:24.035Z,87.85
2019-01-20T06:23:52.660Z,71.12
2019-01-20T06:26:21.307Z,103.87
2019-01-20T06:28:50.402Z,96.35
2019-01-20T06:31:19.810Z,82.92
2019-01-20T06:33:48.451Z,74.40
2019-01-20T06:36:17.401Z,73.28
2019-01-20T06:38:46.683Z,118.00
2019-01-20T06:41:15.571Z,137.50
2019-01-20T06:43:44.566Z,132.82
2019-01-20T06:46:13.769Z,112.50
2019-01-20T06:48:42.960Z,78.25
2019-01-20T06:51:11.971Z,93.55
2019-01-20T06:53:40.933Z,78.17
2019-01-20T06:56:10.105Z,120.85
2019-01-20T06:58:39.087Z,106.72
2019-01-20T07:01:07.744Z,88.30
2019-01-20T07:03:36.449Z,83.33
2019-01-20T07:06:05.608Z,97.33
2019-01-20T07:08:34.262Z,92.20
2019-01-20T07:11:02.939Z,98.10
2019-01-20T07:13:32.182Z,89.62
2019-01-20T07:16:01.177Z,79.58
2019-01-20T07:18:30.374Z,88.37
2019-01-20T07:20:59.685Z,93.40
2019-01-20T07:23:28.576Z,96.15
2019-01-20T07:25:57.570Z,86.15
2019-01-20T07:28:26.970Z,80.38
2019-01-20T07:30:55.595Z,78.45
2019-01-20T07:33:25.062Z,85.05
2019-01-20T07:35:54.052Z,94.80
2019-01-20T07:38:23.353Z,96.25
2019-01-20T07:40:52.347Z,87.22
2019-01-20T07:43:21.241Z,84.75
2019-01-20T07:45:53.035Z,78.15
2019-01-20T07:53:45.631Z,75.03
2019-01-20T07:56:18.031Z,78.28
2019-01-20T07:58:47.023Z,98.62
2019-01-20T08:01:16.014Z,92.20
2019-01-20T08:03:44.731Z,85.53
2019-01-20T08:06:13.693Z,85.22
2019-01-20T08:08:42.690Z,83.22
2019-01-20T08:11:12.092Z,73.50
2019-01-20T08:13:41.085Z,71.37
2019-01-20T08:16:10.078Z,69.45
2019-01-20T08:18:39.381Z,62.58
2019-01-20T08:21:08.375Z,66.42
2019-01-20T08:23:37.321Z,74.85
2019-01-20T08:26:06.055Z,79.87
2019-01-20T08:28:34.721Z,82.35
2019-01-20T08:31:03.510Z,81.20
2019-01-20T08:33:32.420Z,83.33
2019-01-20T08:36:01.418Z,76.97
2019-01-20T08:38:30.717Z,75.52
2019-01-20T08:40:59.712Z,79.05
2019-01-20T08:43:31.951Z,84.65
2019-01-20T08:46:34.970Z,94.80
2019-01-20T08:49:04.259Z,74.12
2019-01-20T08:51:33.848Z,76.55
2019-01-20T08:54:02.876Z,91.35
2019-01-20T08:56:31.873Z,70.12
2019-01-20T08:59:00.491Z,74.62
2019-01-20T09:01:29.155Z,70.70
2019-01-20T09:03:58.139Z,73.33
2019-01-20T09:06:27.071Z,77.90
2019-01-20T09:08:56.335Z,68.47
2019-01-20T09:11:24.973Z,69.00
2019-01-20T09:13:53.635Z,53.78
2019-01-20T09:16:22.300Z,63.95
2019-01-20T09:18:50.941Z,68.78
2019-01-20T09:21:19.866Z,62.67
2019-01-20T09:23:48.520Z,65.85
2019-01-20T09:26:17.547Z,70.70
2019-01-20T09:28:46.502Z,71.75
2019-01-20T09:31:15.633Z,79.37
2019-01-20T09:33:44.625Z,73.45
2019-01-20T09:36:13.557Z,73.78
2019-01-20T09:38:42.203Z,76.02
2019-01-20T09:41:10.927Z,68.37
2019-01-20T09:43:46.818Z,74.42
2019-01-20T09:46:10.830Z,78.05
2019-01-20T09:48:39.822Z,68.30
2019-01-20T09:51:08.813Z,67.47
2019-01-20T09:53:37.847Z,69.03
2019-01-20T09:56:06.804Z,53.08
2019-01-20T09:58:35.893Z,50.15
2019-01-20T10:01:04.996Z,57.20
2019-01-20T10:03:33.981Z,57.13
2019-01-20T10:06:02.884Z,50.28
2019-01-20T10:08:31.528Z,55.75
2019-01-20T10:11:00.451Z,56.77
2019-01-20T10:13:29.441Z,56.45
2019-01-20T10:15:58.111Z,59.60
2019-01-20T10:18:27.118Z,51.30
2019-01-20T10:20:56.020Z,48.85
2019-01-20T10:23:24.746Z,57.20
2019-01-20T10:25:53.408Z,53.30
2019-01-20T10:28:25.369Z,53.98
2019-01-20T10:30:54.042Z,61.92
2019-01-20T10:33:23.239Z,61.25
2019-01-20T10:36:11.174Z,64.65
2019-01-20T10:38:40.422Z,56.95
2019-01-20T10:41:09.086Z,64.62
2019-01-20T10:43:38.071Z,61.55
2019-01-20T10:46:07.158Z,51.23
2019-01-20T10:48:35.804Z,61.15
2019-01-20T10:51:04.827Z,54.15
2019-01-20T10:53:33.485Z,45.25
2019-01-20T10:56:02.478Z,49.18
2019-01-20T10:58:31.287Z,60.05
2019-01-20T11:01:00.289Z,41.05
2019-01-20T11:03:28.945Z,55.03
2019-01-20T11:05:57.875Z,45.15
2019-01-20T11:08:26.873Z,54.73
2019-01-20T11:10:55.639Z,44.05
2019-01-20T11:13:24.874Z,43.73
2019-01-20T11:15:53.526Z,39.48
2019-01-20T11:18:22.642Z,34.88
2019-01-20T11:20:51.432Z,32.35
2019-01-20T11:23:22.573Z,34.75
2019-01-20T11:25:51.581Z,37.00
2019-01-20T11:28:21.406Z,39.18
2019-01-20T11:30:50.482Z,39.75
2019-01-20T11:33:19.774Z,40.03
2019-01-20T11:35:48.769Z,39.18
2019-01-20T11:38:17.655Z,35.63
2019-01-20T11:40:46.956Z,34.75
2019-01-20T11:43:15.589Z,32.55
2019-01-20T11:45:44.550Z,31.70
2019-01-20T11:48:14.372Z,31.68
2019-01-20T11:50:43.445Z,31.40
2019-01-20T11:53:12.439Z,43.50
2019-01-20T11:55:41.551Z,35.75
2019-01-20T11:58:10.530Z,36.63
2019-01-20T12:00:39.548Z,41.33
2019-01-20T12:03:08.794Z,39.08
2019-01-20T12:05:39.752Z,55.67
2019-01-20T12:08:08.975Z,46.28
2019-01-20T12:10:37.741Z,46.58
2019-01-20T12:13:08.301Z,45.67
2019-01-20T12:15:36.961Z,47.88
2019-01-20T12:18:05.987Z,54.40
2019-01-20T12:20:34.721Z,44.80
2019-01-20T12:23:03.443Z,48.98
2019-01-20T12:25:32.425Z,51.33
2019-01-20T12:28:01.428Z,49.63
2019-01-20T12:30:32.571Z,44.08
2019-01-20T12:33:01.314Z,49.48
2019-01-20T12:35:30.358Z,52.33
2019-01-20T12:37:59.164Z,49.58
2019-01-20T12:40:30.389Z,53.28
2019-01-20T12:42:59.370Z,46.58
2019-01-20T12:45:28.578Z,43.13
2019-01-20T12:47:57.880Z,53.20
2019-01-20T12:50:26.873Z,48.98
2019-01-20T12:52:55.544Z,48.40
2019-01-20T12:55:24.212Z,51.25
2019-01-20T12:57:52.842Z,42.38
2019-01-20T13:00:21.837Z,50.70
2019-01-20T13:02:50.917Z,46.50
2019-01-20T13:05:20.012Z,47.20
2019-01-20T13:07:48.905Z,56.02
2019-01-20T13:10:18.204Z,52.62
2019-01-20T13:12:47.005Z,45.48
2019-01-20T13:15:17.841Z,51.90
2019-01-20T13:17:46.827Z,45.80
2019-01-20T13:20:20.898Z,43.50
2019-01-20T13:22:50.238Z,48.85
2019-01-20T13:25:24.021Z,42.73
2019-01-20T13:27:53.346Z,45.12
2019-01-20T13:30:24.189Z,35.33
2019-01-20T13:32:52.862Z,36.15
2019-01-20T13:35:22.261Z,28.95
2019-01-20T13:37:53.920Z,34.98
2019-01-20T13:40:32.853Z,31.45
2019-01-20T13:43:02.461Z,36.03
2019-01-20T13:45:31.677Z,31.25
2019-01-20T13:48:00.323Z,32.60
2019-01-20T13:50:29.241Z,30.90
2019-01-20T13:52:58.253Z,31.60
2019-01-20T13:55:26.909Z,33.10
2019-01-20T13:57:55.915Z,35.88
2019-01-20T14:00:25.015Z,34.25
2019-01-20T14:02:53.714Z,36.55
2019-01-20T14:05:22.681Z,43.30
2019-01-20T14:07:51.790Z,41.20
2019-01-20T14:10:20.487Z,45.38
2019-01-20T14:12:49.251Z,54.45
2019-01-20T14:15:18.252Z,46.98
2019-01-20T14:17:47.043Z,52.23
2019-01-20T14:20:18.116Z,51.85
2019-01-20T14:22:47.172Z,52.45
2019-01-20T14:25:18.325Z,34.48
2019-01-20T14:27:47.440Z,23.80
2019-01-20T14:30:19.191Z,28.30
2019-01-20T14:32:48.487Z,30.80
2019-01-20T14:35:17.686Z,35.55
2019-01-20T14:37:46.667Z,37.08
2019-01-20T14:40:16.349Z,34.53
2019-01-20T14:42:45.275Z,37.73
2019-01-20T14:45:14.823Z,38.53
2019-01-20T14:47:43.877Z,40.67
2019-01-20T14:50:16.703Z,44.98
2019-01-20T14:52:45.372Z,48.80
2019-01-20T14:55:14.439Z,46.65
2019-01-20T14:57:43.751Z,44.63
2019-01-20T15:00:22.156Z,48.50
2019-01-20T15:02:50.892Z,43.40
2019-01-20T15:05:19.940Z,58.85
2019-01-20T15:07:48.931Z,55.25
2019-01-20T15:10:18.074Z,44.85
2019-01-20T15:12:47.020Z,40.20
2019-01-20T15:15:18.987Z,42.85
2019-01-20T15:17:47.980Z,44.53
2019-01-20T15:20:16.949Z,47.40
2019-01-20T15:22:45.608Z,40.70
2019-01-20T15:25:15.043Z,45.17
2019-01-20T15:27:46.217Z,41.30
2019-01-20T15:30:17.928Z,48.75
2019-01-20T15:32:46.961Z,47.15
2019-01-20T15:35:15.953Z,48.80
2019-01-20T15:37:45.253Z,51.58
2019-01-20T15:40:15.407Z,60.25
2019-01-20T15:42:44.118Z,56.53
2019-01-20T15:45:16.445Z,49.93
2019-01-20T15:47:44.555Z,46.73
2019-01-20T15:50:16.232Z,56.28
2019-01-20T15:52:45.471Z,51.15
2019-01-20T15:55:15.073Z,45.45
2019-01-20T15:57:44.166Z,49.08
2019-01-20T16:00:23.003Z,46.10
2019-01-20T16:02:51.728Z,51.42
2019-01-20T16:05:21.124Z,39.00
2019-01-20T16:07:49.866Z,41.33
2019-01-20T16:10:18.711Z,40.03
2019-01-20T16:12:47.849Z,43.52
2019-01-20T16:15:25.077Z,46.10
2019-01-20T16:17:55.350Z,53.17
2019-01-20T16:20:24.312Z,45.60
2019-01-20T16:22:53.359Z,57.03
2019-01-20T16:25:28.019Z,49.73
2019-01-20T16:27:56.977Z,53.00
2019-01-20T16:30:28.201Z,53.78
2019-01-20T16:32:57.219Z,46.85
2019-01-20T16:35:26.722Z,48.45
2019-01-20T16:37:55.994Z,54.15
2019-01-20T16:40:24.740Z,62.98
2019-01-20T16:42:53.810Z,61.60
2019-01-20T16:45:32.018Z,68.28
2019-01-20T16:47:55.991Z,63.85
2019-01-20T16:50:25.291Z,48.15
2019-01-20T16:52:54.843Z,49.77
2019-01-20T16:55:24.512Z,45.12
2019-01-20T16:57:53.502Z,43.58
2019-01-20T17:00:25.059Z,43.28
2019-01-20T17:02:54.563Z,38.92
2019-01-20T17:05:26.802Z,42.73
2019-01-20T17:07:54.085Z,40.30
2019-01-20T17:10:25.242Z,42.10
2019-01-20T17:12:54.259Z,41.77
2019-01-20T17:15:28.856Z,40.40
2019-01-20T17:17:57.672Z,43.48
2019-01-20T17:20:26.832Z,43.80
2019-01-20T17:22:56.238Z,39.92
2019-01-20T17:25:24.965Z,46.40
2019-01-20T17:27:54.224Z,40.15
2019-01-20T17:30:25.445Z,36.38
2019-01-20T17:32:54.762Z,38.28
2019-01-20T17:35:23.766Z,50.63
2019-01-20T17:37:52.539Z,46.65
2019-01-20T17:40:23.507Z,46.35
2019-01-20T17:42:52.601Z,48.73
2019-01-20T17:45:24.054Z,48.85
2019-01-20T17:47:53.458Z,50.83
2019-01-20T17:50:28.297Z,49.98
2019-01-20T17:52:57.412Z,49.63
2019-01-20T17:55:28.186Z,58.23
2019-01-20T17:57:57.152Z,50.78
2019-01-20T18:00:40.539Z,56.35
2019-01-20T18:03:09.915Z,54.85
2019-01-20T18:05:38.946Z,54.03
2019-01-20T18:08:07.811Z,50.20
2019-01-20T18:10:36.557Z,57.70
2019-01-20T18:13:05.886Z,59.20
2019-01-20T18:15:35.028Z,55.43
2019-01-20T18:18:03.748Z,51.18
2019-01-20T18:20:34.138Z,48.25
2019-01-20T18:23:02.876Z,40.28
2019-01-20T18:25:31.666Z,36.85
2019-01-20T18:28:00.695Z,40.30
2019-01-20T18:30:30.214Z,33.00
2019-01-20T18:32:59.415Z,39.65
2019-01-20T18:35:28.242Z,36.83
2019-01-20T18:37:57.289Z,44.13
2019-01-20T18:40:26.188Z,42.30
2019-01-20T18:42:55.677Z,42.73
2019-01-20T18:45:26.974Z,46.05
2019-01-20T18:47:56.434Z,55.35
2019-01-20T18:50:30.669Z,53.28
2019-01-20T18:52:59.486Z,60.05
2019-01-20T18:55:28.537Z,52.65
2019-01-20T18:57:57.305Z,50.75
2019-01-20T19:00:55.445Z,53.85
2019-01-20T19:03:24.133Z,52.35
2019-01-20T19:05:53.080Z,64.37
2019-01-20T19:08:21.723Z,64.82
2019-01-20T19:10:50.756Z,58.68
2019-01-20T19:13:19.425Z,60.20
2019-01-20T19:15:48.429Z,52.43
2019-01-20T19:18:19.223Z,69.25
2019-01-20T19:20:47.555Z,64.47
2019-01-20T19:23:16.488Z,56.20
2019-01-20T19:25:45.543Z,56.33
2019-01-20T19:28:14.322Z,50.98
2019-01-20T19:30:43.319Z,56.05
2019-01-20T19:33:12.085Z,49.23
2019-01-20T19:35:41.002Z,54.60
2019-01-20T19:38:10.096Z,44.15
2019-01-20T19:40:39.089Z,40.43
2019-01-20T19:43:08.118Z,40.45
2019-01-20T19:45:37.191Z,44.95
2019-01-20T19:48:05.860Z,39.30
2019-01-20T19:50:34.902Z,40.98
2019-01-20T19:53:04.063Z,33.42
2019-01-20T19:55:35.710Z,40.95
2019-01-20T19:58:04.717Z,33.92
2019-01-20T20:00:33.805Z,32.42
2019-01-20T20:03:02.478Z,33.83
2019-01-20T20:05:31.894Z,41.33
2019-01-20T20:08:00.902Z,35.95
2019-01-20T20:10:29.709Z,42.67
2019-01-20T20:12:59.296Z,50.58
2019-01-20T20:15:28.703Z,46.75
2019-01-20T20:17:57.706Z,48.92
2019-01-20T20:20:26.831Z,49.75
2019-01-20T20:22:55.863Z,53.75
2019-01-20T20:25:25.707Z,44.77
2019-01-20T20:27:54.703Z,52.55
2019-01-20T20:30:28.447Z,48.28
2019-01-20T20:32:57.392Z,52.55
2019-01-20T20:35:26.160Z,50.38
2019-01-20T20:37:55.169Z,44.75
2019-01-20T20:40:23.833Z,46.95
2019-01-20T20:42:52.656Z,37.60
2019-01-20T20:45:22.735Z,37.53
2019-01-20T20:47:51.477Z,39.75
2019-01-20T20:50:20.323Z,44.18
2019-01-20T20:52:49.335Z,43.08
2019-01-20T20:55:17.959Z,49.10
2019-01-20T20:57:49.694Z,39.08
2019-01-20T21:00:27.474Z,38.02
2019-01-20T21:02:56.469Z,38.38
2019-01-20T21:05:25.561Z,34.48
2019-01-20T21:07:54.272Z,34.53
2019-01-20T21:10:23.464Z,39.75
2019-01-20T21:12:52.289Z,39.25
2019-01-20T21:15:21.336Z,41.95
2019-01-20T21:17:50.026Z,46.23
2019-01-20T21:20:20.247Z,44.63
2019-01-20T21:22:49.337Z,48.40
2019-01-20T21:25:18.344Z,46.28
2019-01-20T21:27:47.423Z,45.23
2019-01-20T21:30:21.639Z,43.70
2019-01-20T21:32:50.635Z,42.70
2019-01-20T21:35:19.381Z,46.08
2019-01-20T21:37:48.052Z,37.88
2019-01-20T21:40:17.422Z,45.80
2019-01-20T21:42:46.233Z,42.58
2019-01-20T21:45:15.808Z,45.25
2019-01-20T21:47:44.811Z,47.00
2019-01-20T21:50:24.765Z,45.30
2019-01-20T21:52:53.754Z,58.83
2019-01-20T21:55:22.745Z,45.90
2019-01-20T21:57:51.422Z,42.27
2019-01-20T22:00:22.317Z,45.60
2019-01-20T22:02:51.364Z,46.65
2019-01-20T22:05:20.663Z,41.30
2019-01-20T22:07:49.688Z,42.53
2019-01-20T22:10:20.296Z,43.45
2019-01-20T22:12:49.048Z,49.30
2019-01-20T22:15:17.897Z,47.53
2019-01-20T22:17:47.688Z,37.40
2019-01-20T22:20:18.343Z,42.38
2019-01-20T22:22:47.085Z,42.20
2019-01-20T22:25:16.198Z,38.53
2019-01-20T22:27:44.921Z,40.58
2019-01-20T22:30:16.092Z,43.05
2019-01-20T22:32:45.113Z,41.50
2019-01-20T22:35:15.344Z,48.28
2019-01-20T22:37:43.986Z,47.40
2019-01-20T22:40:13.945Z,47.80
2019-01-20T22:42:42.937Z,42.50
2019-01-20T22:45:13.950Z,41.33
2019-01-20T22:47:42.873Z,41.53
2019-01-20T22:50:12.804Z,35.30
2019-01-20T22:52:41.876Z,32.63
2019-01-20T22:55:12.205Z,37.67
2019-01-20T22:57:41.106Z,40.23
2019-01-20T23:00:18.340Z,40.83
2019-01-20T23:02:46.992Z,46.53
2019-01-20T23:05:15.965Z,41.10
2019-01-20T23:07:44.634Z,37.80
2019-01-20T23:10:13.028Z,39.90
2019-01-20T23:12:41.682Z,34.90
2019-01-20T23:15:10.428Z,37.17
2019-01-20T23:17:39.804Z,39.65
2019-01-20T23:20:10.856Z,39.92
2019-01-20T23:22:39.847Z,43.05
2019-01-20T23:25:08.937Z,39.18
2019-01-20T23:27:38.004Z,41.55
2019-01-20T23:30:08.000Z,40.30
2019-01-20T23:32:37.251Z,43.48
2019-01-20T23:35:06.324Z,39.27
2019-01-20T23:37:35.237Z,43.25
2019-01-20T23:40:04.864Z,40.95
2019-01-20T23:42:34.250Z,34.10
2019-01-20T23:45:02.880Z,36.40
2019-01-20T23:47:31.608Z,43.73
2019-01-20T23:50:00.513Z,32.83
2019-01-20T23:52:29.813Z,39.75
2019-01-20T23:54:58.705Z,32.00
2019-01-20T23:57:27.359Z,42.00
2019-01-20T23:59:56.284Z,42.05
